Time;durP1;ratioP1;P1;durP2;ratioP2;P2;SDS_P1;SDS_P2;PMS_P1;PMS_P2;Temp;Humidity;BMP_temperature;BMP_pressure;BME280_temperature;BME280_humidity;BME280_pressure;Samples;Min_cycle;Max_cycle;Signal;HPM_P1;HPM_P2
2022/06/07 00:02:01;;;;;;;1.83;0.40;;;16.60;65.10;;;;;;4941853;28;20038;-73
2022/06/07 00:04:26;;;;;;;0.40;0.40;;;16.50;65.10;;;;;;4965246;28;20039;-73
2022/06/07 00:06:52;;;;;;;3.05;0.40;;;16.50;65.10;;;;;;4940976;28;20589;-74
2022/06/07 00:09:17;;;;;;;1.67;0.50;;;16.50;65.20;;;;;;4954804;28;20031;-73
2022/06/07 00:11:43;;;;;;;0.88;0.40;;;16.50;65.30;;;;;;4957120;28;20649;-73
2022/06/07 00:14:08;;;;;;;0.75;0.40;;;16.50;65.30;;;;;;4954264;28;20038;-74
2022/06/07 00:16:34;;;;;;;0.50;0.50;;;16.50;65.40;;;;;;4940082;28;20027;-73
2022/06/07 00:19:00;;;;;;;0.47;0.40;;;16.50;65.40;;;;;;4955423;28;20530;-73
2022/06/07 00:21:29;;;;;;;1.42;0.43;;;16.60;65.40;;;;;;4952306;28;20134;-73
2022/06/07 00:23:58;;;;;;;1.25;0.40;;;16.50;65.40;;;;;;4938352;28;20039;-72
2022/06/07 00:26:24;;;;;;;2.42;0.47;;;16.50;65.40;;;;;;4941570;28;20097;-74
2022/06/07 00:28:50;;;;;;;3.83;0.60;;;16.50;65.40;;;;;;4937147;28;20178;-74
2022/06/07 00:31:15;;;;;;;1.00;0.50;;;16.50;65.50;;;;;;4943762;28;20447;-73
2022/06/07 00:33:41;;;;;;;1.13;0.47;;;16.50;65.50;;;;;;4953366;28;20527;-73
2022/06/07 00:36:08;;;;;;;2.10;0.60;;;16.60;65.60;;;;;;4952030;28;20073;-74
2022/06/07 00:38:34;;;;;;;1.08;0.70;;;16.60;65.70;;;;;;4940514;28;20061;-73
2022/06/07 00:41:00;;;;;;;0.43;0.40;;;16.60;65.70;;;;;;4921682;28;20659;-74
2022/06/07 00:43:26;;;;;;;2.25;0.88;;;16.60;65.80;;;;;;4956874;28;20046;-74
2022/06/07 00:45:51;;;;;;;1.48;0.40;;;16.60;66.00;;;;;;4940620;28;20038;-73
2022/06/07 00:48:17;;;;;;;7.15;0.55;;;16.60;66.00;;;;;;4971250;28;20039;-74
2022/06/07 00:50:58;;;;;;;1.00;0.57;;;16.60;66.00;;;;;;4951624;28;20069;-74
2022/06/07 00:53:29;;;;;;;0.88;0.60;;;16.60;66.30;;;;;;4941392;28;20133;-74
2022/06/07 00:55:54;;;;;;;0.30;0.30;;;16.70;66.20;;;;;;4973679;28;20045;-76
2022/06/07 00:58:20;;;;;;;0.40;0.40;;;16.60;66.20;;;;;;4965044;28;20068;-74
2022/06/07 01:00:46;;;;;;;3.53;0.80;;;16.70;66.20;;;;;;4926243;28;20104;-73
2022/06/07 01:03:12;;;;;;;1.27;0.60;;;16.60;66.10;;;;;;4940957;28;20093;-73
2022/06/07 01:05:37;;;;;;;0.60;0.45;;;16.60;66.10;;;;;;4956023;28;20897;-73
2022/06/07 01:10:48;;;;;;;1.15;0.50;;;16.60;66.20;;;;;;4968185;28;20070;-73
2022/06/07 01:13:21;;;;;;;2.30;0.57;;;16.60;66.20;;;;;;4952117;28;20038;-73
2022/06/07 01:15:47;;;;;;;1.83;0.52;;;16.60;66.50;;;;;;4940156;28;20679;-73
2022/06/07 01:18:13;;;;;;;0.47;0.32;;;16.60;66.40;;;;;;4943111;28;20075;-73
2022/06/07 01:20:39;;;;;;;0.43;0.40;;;16.60;66.40;;;;;;4963852;28;20056;-73
2022/06/07 01:23:05;;;;;;;0.50;0.50;;;16.60;66.50;;;;;;4942886;28;20055;-73
2022/06/07 01:25:31;;;;;;;1.38;0.60;;;16.60;66.60;;;;;;4925615;28;20063;-74
2022/06/07 01:27:56;;;;;;;0.95;0.60;;;16.60;66.60;;;;;;4952960;28;20090;-73
2022/06/07 01:30:22;;;;;;;0.70;0.60;;;16.50;66.60;;;;;;4950107;28;20038;-73
2022/06/07 01:32:47;;;;;;;0.50;0.40;;;16.50;66.80;;;;;;4942350;28;20036;-74
2022/06/07 01:35:13;;;;;;;0.93;0.50;;;16.50;66.90;;;;;;4977769;28;20039;-74
2022/06/07 01:37:39;;;;;;;0.40;0.40;;;16.50;67.00;;;;;;4955216;28;20079;-73
2022/06/07 01:42:49;;;;;;;0.85;0.60;;;16.50;67.20;;;;;;4947197;28;20114;-74
2022/06/07 01:45:15;;;;;;;1.35;0.68;;;16.50;67.20;;;;;;4955290;28;20050;-73
2022/06/07 01:47:40;;;;;;;0.75;0.55;;;16.50;67.30;;;;;;4951446;28;20049;-73
2022/06/07 01:50:08;;;;;;;1.45;0.70;;;16.50;67.60;;;;;;4951342;28;20041;-73
2022/06/07 01:52:34;;;;;;;1.13;0.65;;;16.50;67.60;;;;;;4930998;28;20050;-74
2022/06/07 01:55:00;;;;;;;0.40;0.40;;;16.50;67.70;;;;;;4925400;28;20030;-73
2022/06/07 01:57:25;;;;;;;3.60;0.60;;;16.50;67.90;;;;;;4955968;28;20027;-74
2022/06/07 01:59:51;;;;;;;1.17;0.52;;;16.50;68.00;;;;;;4948913;28;20091;-73
2022/06/07 02:02:17;;;;;;;0.50;0.50;;;16.50;68.10;;;;;;4926850;28;20035;-73
2022/06/07 02:04:43;;;;;;;3.90;0.60;;;16.50;68.30;;;;;;4971845;28;20031;-74
2022/06/07 02:07:09;;;;;;;1.38;0.50;;;16.50;68.20;;;;;;4954792;28;20493;-74
2022/06/07 02:09:34;;;;;;;0.63;0.40;;;16.50;68.20;;;;;;4971774;28;20038;-73
2022/06/07 02:12:00;;;;;;;0.68;0.52;;;16.50;68.20;;;;;;4958286;28;20695;-74
2022/06/07 02:14:26;;;;;;;0.95;0.60;;;16.50;68.30;;;;;;4945308;28;20039;-74
2022/06/07 02:16:52;;;;;;;0.88;0.60;;;16.50;68.40;;;;;;4954161;28;20031;-74
2022/06/07 02:19:17;;;;;;;1.00;0.50;;;16.50;68.40;;;;;;4934875;28;20038;-74
2022/06/07 02:21:43;;;;;;;2.92;0.43;;;16.40;68.40;;;;;;4965168;28;20041;-73
2022/06/07 02:24:09;;;;;;;0.93;0.70;;;16.40;68.40;;;;;;4950336;28;20062;-73
2022/06/07 02:26:53;;;;;;;2.58;0.70;;;16.40;68.40;;;;;;4944188;28;20807;-73
2022/06/07 02:29:21;;;;;;;0.95;0.40;;;16.40;68.70;;;;;;4924369;28;20046;-73
2022/06/07 02:31:51;;;;;;;2.60;0.50;;;16.40;68.40;;;;;;4986368;28;20043;-73
2022/06/07 02:34:18;;;;;;;0.73;0.52;;;16.40;68.40;;;;;;4921999;28;20046;-73
2022/06/07 02:36:44;;;;;;;0.80;0.57;;;16.40;68.40;;;;;;4981444;28;20093;-73
2022/06/07 02:39:10;;;;;;;2.33;0.50;;;16.30;68.40;;;;;;4968714;28;20671;-73
2022/06/07 02:41:35;;;;;;;2.00;0.55;;;16.30;68.50;;;;;;4987915;28;20032;-73
2022/06/07 02:44:01;;;;;;;0.40;0.40;;;16.30;68.50;;;;;;4923926;28;20035;-73
2022/06/07 02:46:27;;;;;;;0.70;0.60;;;16.30;68.60;;;;;;4925219;28;20058;-73
2022/06/07 02:48:52;;;;;;;1.42;0.60;;;16.30;68.80;;;;;;4955931;28;20113;-73
2022/06/07 02:51:18;;;;;;;0.60;0.60;;;16.30;68.90;;;;;;4933248;28;20770;-74
2022/06/07 02:53:44;;;;;;;0.50;0.50;;;16.30;69.10;;;;;;4961435;28;20034;-73
2022/06/07 02:56:10;;;;;;;2.00;0.68;;;16.20;69.10;;;;;;4955738;28;20081;-72
2022/06/07 02:58:35;;;;;;;1.13;0.50;;;16.20;69.10;;;;;;4918536;28;20556;-74
2022/06/07 03:01:01;;;;;;;2.13;0.70;;;16.20;69.30;;;;;;4957361;28;20043;-73
2022/06/07 03:03:26;;;;;;;1.05;0.50;;;16.20;69.50;;;;;;4955923;28;20100;-72
2022/06/07 03:05:52;;;;;;;2.38;0.50;;;16.20;69.60;;;;;;4963015;28;20050;-73
2022/06/07 03:08:18;;;;;;;2.92;0.73;;;16.20;69.70;;;;;;4949409;28;20036;-73
2022/06/07 03:10:47;;;;;;;0.80;0.70;;;16.10;69.80;;;;;;4942183;28;20058;-73
2022/06/07 03:13:13;;;;;;;0.73;0.63;;;16.10;69.80;;;;;;4924345;28;20034;-72
2022/06/07 03:15:40;;;;;;;1.85;0.60;;;16.10;69.90;;;;;;4959525;28;20027;-74
2022/06/07 03:18:05;;;;;;;2.85;0.73;;;16.10;69.90;;;;;;4958602;28;20562;-73
2022/06/07 03:20:31;;;;;;;1.30;0.52;;;16.00;70.00;;;;;;4933387;28;20070;-73
2022/06/07 03:22:56;;;;;;;0.60;0.60;;;16.00;70.10;;;;;;4946500;28;20050;-72
2022/06/07 03:25:24;;;;;;;0.60;0.60;;;16.00;70.10;;;;;;4955888;28;20042;-72
2022/06/07 03:27:50;;;;;;;1.05;0.50;;;16.00;70.20;;;;;;4950094;28;20527;-73
2022/06/07 03:30:16;;;;;;;1.73;0.57;;;15.90;70.20;;;;;;4954483;28;20059;-73
2022/06/07 03:32:42;;;;;;;1.85;0.50;;;15.90;70.20;;;;;;4975756;28;20042;-72
2022/06/07 03:35:08;;;;;;;1.10;0.70;;;15.90;70.30;;;;;;4970933;28;20027;-73
2022/06/07 03:37:34;;;;;;;0.80;0.60;;;15.90;70.30;;;;;;4957033;28;20481;-73
2022/06/07 03:39:59;;;;;;;4.72;0.80;;;15.90;70.30;;;;;;4925737;28;20031;-73
2022/06/07 03:42:25;;;;;;;0.93;0.55;;;15.80;70.30;;;;;;4931285;28;20038;-73
2022/06/07 03:44:50;;;;;;;0.43;0.38;;;15.80;70.40;;;;;;4939568;28;20491;-73
2022/06/07 03:47:19;;;;;;;0.70;0.60;;;15.70;70.40;;;;;;4960526;28;20393;-73
2022/06/07 03:49:46;;;;;;;1.95;0.57;;;15.70;70.60;;;;;;4952312;28;20456;-74
2022/06/07 03:52:11;;;;;;;1.45;0.68;;;15.70;70.60;;;;;;4955065;28;20050;-74
2022/06/07 03:54:38;;;;;;;2.22;0.77;;;15.70;70.70;;;;;;4954655;28;20829;-75
2022/06/07 03:57:04;;;;;;;0.57;0.57;;;15.70;70.80;;;;;;4975835;28;20031;-74
2022/06/07 03:59:30;;;;;;;1.02;0.90;;;15.70;70.90;;;;;;4943586;28;20420;-75
2022/06/07 04:01:55;;;;;;;2.42;0.65;;;15.70;71.00;;;;;;4972265;28;20035;-73
2022/06/07 04:04:21;;;;;;;1.40;0.68;;;15.70;71.00;;;;;;4955339;28;20042;-74
2022/06/07 04:09:31;;;;;;;2.10;1.00;;;15.70;71.20;;;;;;4956735;28;20126;-75
2022/06/07 04:11:56;;;;;;;0.88;0.60;;;15.70;71.20;;;;;;4944193;28;20638;-73
2022/06/07 04:14:22;;;;;;;0.70;0.70;;;15.70;71.30;;;;;;4954250;28;20053;-76
2022/06/07 04:16:48;;;;;;;1.60;0.73;;;15.70;71.30;;;;;;4943329;28;20031;-74
2022/06/07 04:19:13;;;;;;;1.02;0.63;;;15.70;71.40;;;;;;4984021;28;20049;-74
2022/06/07 04:21:39;;;;;;;1.73;0.80;;;15.70;71.50;;;;;;4966363;28;20043;-74
2022/06/07 04:24:05;;;;;;;1.98;0.73;;;15.80;71.60;;;;;;4955740;28;20035;-75
2022/06/07 04:26:30;;;;;;;1.00;0.70;;;15.80;71.70;;;;;;4952474;28;20039;-75
2022/06/07 04:28:57;;;;;;;1.92;1.00;;;15.80;71.70;;;;;;4948926;28;20121;-75
2022/06/07 04:31:23;;;;;;;0.70;0.70;;;15.80;71.70;;;;;;4948017;28;20046;-74
2022/06/07 04:33:50;;;;;;;2.13;0.68;;;15.80;72.00;;;;;;4933968;28;20165;-74
2022/06/07 04:36:18;;;;;;;1.33;0.85;;;15.80;72.00;;;;;;4954526;28;20049;-74
2022/06/07 04:38:44;;;;;;;1.55;0.88;;;15.80;71.90;;;;;;4952010;28;20035;-74
2022/06/07 04:41:11;;;;;;;4.18;0.88;;;15.90;72.10;;;;;;4955886;28;20045;-74
2022/06/07 04:43:36;;;;;;;1.02;0.80;;;15.90;72.20;;;;;;4962942;28;20562;-74
2022/06/07 04:46:03;;;;;;;1.23;0.70;;;15.90;72.20;;;;;;4956991;28;20237;-74
2022/06/07 04:48:29;;;;;;;1.67;1.00;;;16.00;72.30;;;;;;4948014;28;20039;-75
2022/06/07 04:51:04;;;;;;;1.85;1.08;;;16.00;72.30;;;;;;4969745;28;20043;-74
2022/06/07 04:53:31;;;;;;;2.08;1.40;;;16.00;72.30;;;;;;4941556;28;20673;-74
2022/06/07 04:55:57;;;;;;;1.55;0.93;;;16.00;72.20;;;;;;4938773;28;20062;-74
2022/06/07 04:58:22;;;;;;;0.85;0.70;;;16.00;72.30;;;;;;4945246;28;20043;-74
2022/06/07 05:00:48;;;;;;;2.33;1.08;;;16.10;72.40;;;;;;4956406;28;20035;-74
2022/06/07 05:03:14;;;;;;;2.42;1.00;;;16.10;72.50;;;;;;4954663;28;20171;-74
2022/06/07 05:05:39;;;;;;;3.13;1.10;;;16.10;72.60;;;;;;4950815;28;20168;-74
2022/06/07 05:08:05;;;;;;;2.58;0.85;;;16.20;72.80;;;;;;4954743;28;20102;-74
2022/06/07 05:10:30;;;;;;;2.67;0.93;;;16.20;72.50;;;;;;4952005;28;20507;-74
2022/06/07 05:12:56;;;;;;;3.17;1.10;;;16.20;72.50;;;;;;4958708;28;20082;-76
2022/06/07 05:15:21;;;;;;;3.33;1.38;;;16.20;72.40;;;;;;4956381;28;20023;-74
2022/06/07 05:17:47;;;;;;;2.78;1.42;;;16.30;72.80;;;;;;4963292;28;20080;-74
2022/06/07 05:20:13;;;;;;;2.22;1.55;;;16.30;72.80;;;;;;4970993;28;20796;-74
2022/06/07 05:22:38;;;;;;;5.22;1.20;;;16.40;73.10;;;;;;4972309;28;20034;-76
2022/06/07 05:25:04;;;;;;;2.25;1.00;;;16.40;73.20;;;;;;4938144;28;20173;-74
2022/06/07 05:27:35;;;;;;;5.82;1.85;;;16.40;73.10;;;;;;4940338;28;20037;-75
2022/06/07 05:30:00;;;;;;;1.00;0.77;;;16.50;73.40;;;;;;4954030;28;20552;-74
2022/06/07 05:32:26;;;;;;;2.85;1.23;;;16.50;73.30;;;;;;4954429;28;20050;-73
2022/06/07 05:34:51;;;;;;;0.93;0.90;;;16.50;73.20;;;;;;4973987;28;20035;-73
2022/06/07 05:37:19;;;;;;;1.40;1.10;;;16.60;73.30;;;;;;4950951;28;20045;-73
2022/06/07 05:39:45;;;;;;;1.75;1.10;;;16.60;73.30;;;;;;4969155;28;20081;-73
2022/06/07 05:42:11;;;;;;;3.03;1.08;;;16.70;73.40;;;;;;4937998;28;20419;-74
2022/06/07 05:44:36;;;;;;;5.25;1.00;;;16.70;73.30;;;;;;4961428;28;20124;-74
2022/06/07 05:47:03;;;;;;;4.03;1.30;;;16.80;73.10;;;;;;4955762;28;20669;-75
2022/06/07 05:49:31;;;;;;;2.85;1.17;;;16.80;73.00;;;;;;4939616;28;20050;-73
2022/06/07 05:51:57;;;;;;;1.35;0.90;;;16.90;73.10;;;;;;4942998;28;20053;-75
2022/06/07 05:54:23;;;;;;;1.60;1.10;;;16.90;73.00;;;;;;4938895;28;20035;-73
2022/06/07 05:56:49;;;;;;;1.10;1.00;;;17.00;73.00;;;;;;4969342;28;20046;-73
2022/06/07 05:59:15;;;;;;;2.97;0.95;;;17.00;73.00;;;;;;4950678;28;20038;-73
2022/06/07 06:01:40;;;;;;;1.40;0.80;;;17.00;72.90;;;;;;4958206;28;20031;-73
2022/06/07 06:04:07;;;;;;;1.10;1.00;;;17.10;73.00;;;;;;4941030;28;20042;-74
2022/06/07 06:06:33;;;;;;;3.03;1.10;;;17.10;72.80;;;;;;4956685;28;20039;-73
2022/06/07 06:11:43;;;;;;;1.10;1.00;;;17.20;72.60;;;;;;4951440;28;20104;-74
2022/06/07 06:14:08;;;;;;;1.63;0.80;;;17.30;72.50;;;;;;4964415;28;20080;-74
2022/06/07 06:16:34;;;;;;;3.22;0.90;;;17.30;72.40;;;;;;4948682;28;20557;-73
2022/06/07 06:18:59;;;;;;;2.72;0.90;;;17.40;72.40;;;;;;4973425;28;20077;-73
2022/06/07 06:21:28;;;;;;;3.53;0.98;;;17.40;72.20;;;;;;4937530;28;20082;-73
2022/06/07 06:23:56;;;;;;;4.78;1.23;;;17.50;72.10;;;;;;4958682;28;20047;-73
2022/06/07 06:26:21;;;;;;;2.75;0.90;;;17.50;71.80;;;;;;4945376;28;20042;-75
2022/06/07 06:28:47;;;;;;;2.63;0.90;;;17.60;71.60;;;;;;4956363;28;20039;-76
2022/06/07 06:31:13;;;;;;;1.33;0.95;;;17.60;71.40;;;;;;4942487;28;20061;-76
2022/06/07 06:33:40;;;;;;;3.92;0.90;;;17.60;71.30;;;;;;4955804;28;20034;-73
2022/06/07 06:36:10;;;;;;;4.38;1.10;;;17.70;71.10;;;;;;4961618;28;20110;-73
2022/06/07 06:38:36;;;;;;;1.00;0.88;;;17.80;71.00;;;;;;4958028;28;20118;-73
2022/06/07 06:41:19;;;;;;;2.40;0.90;;;17.90;70.70;;;;;;4956714;28;20177;-72
2022/06/07 06:43:45;;;;;;;2.63;1.15;;;18.10;70.30;;;;;;4958804;28;20104;-73
2022/06/07 06:46:13;;;;;;;0.80;0.80;;;18.20;70.10;;;;;;4976769;28;20487;-73
2022/06/07 06:48:39;;;;;;;3.45;0.70;;;18.30;69.90;;;;;;4929752;28;20132;-73
2022/06/07 06:51:06;;;;;;;1.17;0.60;;;18.50;69.70;;;;;;4951305;28;20541;-73
2022/06/07 06:53:32;;;;;;;3.42;1.00;;;18.70;69.30;;;;;;4958050;28;20039;-73
2022/06/07 06:55:58;;;;;;;1.48;0.88;;;18.80;69.00;;;;;;4942570;28;20427;-74
2022/06/07 06:58:26;;;;;;;2.17;0.90;;;18.90;68.70;;;;;;4951820;28;20042;-73
2022/06/07 07:01:02;;;;;;;0.93;0.75;;;19.00;68.30;;;;;;4942415;28;20050;-73
2022/06/07 07:03:28;;;;;;;1.55;0.63;;;19.20;67.80;;;;;;4961678;28;20030;-73
2022/06/07 07:05:55;;;;;;;3.58;0.93;;;19.30;67.70;;;;;;4974037;28;20081;-76
2022/06/07 07:08:21;;;;;;;1.27;0.70;;;19.50;67.40;;;;;;4961245;28;20034;-76
2022/06/07 07:10:47;;;;;;;3.17;2.35;;;19.60;67.10;;;;;;4947532;28;20039;-76
2022/06/07 07:13:12;;;;;;;2.85;0.90;;;19.70;66.70;;;;;;4968309;28;20034;-74
2022/06/07 07:15:38;;;;;;;0.98;0.90;;;19.90;66.40;;;;;;4921632;28;20037;-73
2022/06/07 07:18:03;;;;;;;1.77;1.00;;;20.00;66.10;;;;;;4953915;28;20047;-74
2022/06/07 07:20:29;;;;;;;1.85;0.80;;;20.20;65.70;;;;;;4954233;28;20094;-75
2022/06/07 07:22:55;;;;;;;1.70;0.52;;;20.30;65.10;;;;;;4971444;28;20081;-74
2022/06/07 07:25:21;;;;;;;2.20;1.02;;;20.40;64.80;;;;;;4963920;28;20042;-75
2022/06/07 07:27:46;;;;;;;0.80;0.60;;;20.60;64.40;;;;;;4967605;28;20019;-75
2022/06/07 07:30:13;;;;;;;3.65;0.75;;;20.70;64.00;;;;;;4940003;28;20047;-74
2022/06/07 07:32:39;;;;;;;3.60;0.88;;;20.90;63.70;;;;;;4957435;28;20444;-74
2022/06/07 07:35:05;;;;;;;0.88;0.77;;;21.00;63.20;;;;;;4931017;28;20113;-75
2022/06/07 07:37:32;;;;;;;3.47;0.98;;;21.20;62.90;;;;;;4972430;28;20062;-74
2022/06/07 07:39:57;;;;;;;0.63;0.63;;;21.30;62.40;;;;;;4972228;28;20125;-74
2022/06/07 07:42:23;;;;;;;0.50;0.50;;;21.50;62.00;;;;;;4945097;28;20117;-74
2022/06/07 07:44:48;;;;;;;0.70;0.50;;;21.70;61.60;;;;;;4949405;28;20062;-75
2022/06/07 07:47:14;;;;;;;0.88;0.60;;;21.80;61.20;;;;;;4954624;28;20513;-75
2022/06/07 07:49:39;;;;;;;0.90;0.50;;;21.90;60.80;;;;;;4975013;28;20049;-74
2022/06/07 07:52:05;;;;;;;0.98;0.60;;;22.00;60.60;;;;;;4962192;28;20092;-75
2022/06/07 07:54:31;;;;;;;2.38;0.80;;;22.10;60.20;;;;;;4960875;28;20031;-74
2022/06/07 07:56:56;;;;;;;0.43;0.43;;;22.30;59.90;;;;;;4949163;28;20446;-74
2022/06/07 07:59:22;;;;;;;0.95;0.55;;;22.50;59.60;;;;;;4958347;28;20030;-75
2022/06/07 08:01:49;;;;;;;1.55;0.73;;;22.60;58.90;;;;;;4956222;28;20034;-75
2022/06/07 08:04:14;;;;;;;3.15;0.65;;;22.60;58.50;;;;;;4928384;28;20049;-75
2022/06/07 08:06:40;;;;;;;1.40;0.70;;;22.70;58.10;;;;;;4950161;28;20042;-75
2022/06/07 08:09:08;;;;;;;7.18;2.58;;;22.80;57.90;;;;;;4944446;28;20129;-75
2022/06/07 08:11:35;;;;;;;3.28;1.17;;;22.70;57.60;;;;;;4972708;28;20043;-76
2022/06/07 08:14:02;;;;;;;3.28;1.40;;;22.80;57.60;;;;;;4948468;28;20037;-75
2022/06/07 08:16:27;;;;;;;1.17;0.52;;;22.80;57.60;;;;;;4947334;28;20531;-74
2022/06/07 08:18:53;;;;;;;2.50;0.65;;;22.90;57.50;;;;;;4940963;28;20051;-74
2022/06/07 08:21:26;;;;;;;1.15;0.80;;;23.00;57.40;;;;;;4985413;28;20070;-74
2022/06/07 08:23:53;;;;;;;1.73;0.77;;;23.10;56.90;;;;;;4964059;28;20039;-74
2022/06/07 08:26:18;;;;;;;2.97;0.50;;;23.30;56.70;;;;;;4972437;28;20039;-76
2022/06/07 08:28:44;;;;;;;1.40;0.40;;;23.40;56.30;;;;;;4934362;28;20066;-76
2022/06/07 08:31:15;;;;;;;0.40;0.40;;;23.50;55.90;;;;;;4934280;28;20082;-75
2022/06/07 08:39:09;;;;;;;1.20;0.40;;;24.10;54.60;;;;;;4959167;28;20104;-75
2022/06/07 08:41:45;;;;;;;1.80;0.75;;;24.30;53.90;;;;;;4948439;28;20590;-74
2022/06/07 08:44:26;;;;;;;2.63;0.57;;;24.50;53.30;;;;;;4968372;28;20039;-74
2022/06/07 08:46:54;;;;;;;0.77;0.50;;;24.50;52.20;;;;;;4960345;28;20039;-74
2022/06/07 08:49:19;;;;;;;6.68;1.60;;;24.60;52.50;;;;;;4959607;28;20058;-75
2022/06/07 08:51:50;;;;;;;5.93;0.93;;;24.60;52.20;;;;;;4944271;28;20050;-75
2022/06/07 08:54:20;;;;;;;2.30;0.73;;;24.80;51.70;;;;;;4967735;28;20043;-74
2022/06/07 08:56:45;;;;;;;1.02;0.70;;;25.00;51.60;;;;;;4961113;28;20039;-75
2022/06/07 08:59:12;;;;;;;2.35;0.80;;;25.20;51.30;;;;;;4968718;28;20034;-74
2022/06/07 09:01:55;;;;;;;1.27;0.93;;;25.30;50.90;;;;;;4954219;28;20046;-74
2022/06/07 09:04:24;;;;;;;2.28;0.88;;;25.40;49.70;;;;;;4956429;28;20547;-73
2022/06/07 09:06:57;;;;;;;1.08;0.60;;;25.30;50.30;;;;;;4930764;28;20046;-74
2022/06/07 09:12:09;;;;;;;1.10;0.50;;;25.40;50.10;;;;;;4953599;28;20093;-73
2022/06/07 09:12:16;;;;;;;3.22;1.27;;;25.50;49.90;;;;;;4952346;28;20123;-73
2022/06/07 09:14:53;;;;;;;2.45;1.70;;;25.70;49.70;;;;;;4948182;28;20039;-73
2022/06/07 09:17:41;;;;;;;8.43;2.85;;;25.90;49.10;;;;;;4971893;28;20050;-76
2022/06/07 09:20:14;;;;;;;1.30;0.80;;;25.90;48.30;;;;;;4972282;28;20102;-75
2022/06/07 09:22:42;;;;;;;2.13;0.60;;;25.90;48.70;;;;;;4940670;28;20039;-74
2022/06/07 09:25:13;;;;;;;2.85;0.80;;;25.80;48.50;;;;;;4950692;28;20462;-74
2022/06/07 09:27:39;;;;;;;1.13;0.40;;;25.90;48.60;;;;;;4951573;28;20065;-75
2022/06/07 09:30:19;;;;;;;0.70;0.40;;;26.00;48.60;;;;;;4945976;28;20563;-74
2022/06/07 09:32:45;;;;;;;1.85;0.55;;;26.10;47.80;;;;;;4972020;28;20058;-73
2022/06/07 09:35:36;;;;;;;2.70;0.70;;;26.30;48.20;;;;;;4968846;28;20511;-75
2022/06/07 09:38:07;;;;;;;0.50;0.30;;;26.40;45.90;;;;;;4934135;28;20043;-76
2022/06/07 09:40:37;;;;;;;0.55;0.50;;;26.50;47.00;;;;;;4946623;28;20031;-76
2022/06/07 09:43:11;;;;;;;0.70;0.30;;;26.60;46.90;;;;;;4971259;28;20085;-76
2022/06/07 09:45:51;;;;;;;0.75;0.40;;;26.80;45.80;;;;;;4957885;28;20089;-74
2022/06/07 09:48:42;;;;;;;0.52;0.50;;;26.90;46.20;;;;;;4941686;28;20034;-74
2022/06/07 09:51:22;;;;;;;2.28;0.50;;;27.10;44.80;;;;;;4949314;28;20121;-73
2022/06/07 09:54:03;;;;;;;1.57;0.40;;;27.20;44.90;;;;;;4945173;28;20047;-74
2022/06/07 09:56:37;;;;;;;1.05;0.45;;;27.30;44.40;;;;;;4950591;28;20289;-76
2022/06/07 09:59:43;;;;;;;0.90;0.32;;;27.30;44.90;;;;;;4964304;28;20045;-75
2022/06/07 10:02:36;;;;;;;0.40;0.30;;;27.40;44.00;;;;;;4957158;28;20749;-74
2022/06/07 10:05:28;;;;;;;1.70;0.50;;;27.40;43.40;;;;;;4948063;28;20039;-74
2022/06/07 10:08:02;;;;;;;1.45;0.30;;;27.40;43.80;;;;;;4927022;28;20054;-75
2022/06/07 10:10:46;;;;;;;1.00;0.32;;;27.30;44.30;;;;;;4947255;28;20062;-74
2022/06/07 10:13:40;;;;;;;1.48;0.40;;;27.30;43.80;;;;;;4939837;28;20031;-76
2022/06/07 10:16:38;;;;;;;2.20;0.45;;;27.30;43.70;;;;;;4975040;28;20038;-75
2022/06/07 10:19:32;;;;;;;0.32;0.30;;;27.30;43.80;;;;;;4963064;28;20030;-75
2022/06/07 10:22:36;;;;;;;1.85;0.40;;;27.20;43.80;;;;;;4961409;28;20050;-75
2022/06/07 10:25:13;;;;;;;1.73;0.30;;;27.20;43.20;;;;;;4947771;28;20030;-75
2022/06/07 10:27:45;;;;;;;2.35;0.40;;;27.20;43.50;;;;;;4975729;28;20039;-75
2022/06/07 10:30:32;;;;;;;1.40;0.40;;;27.10;43.50;;;;;;4961842;28;20042;-75
2022/06/07 10:33:19;;;;;;;1.13;0.40;;;27.00;43.50;;;;;;4965966;28;20551;-76
2022/06/07 10:35:58;;;;;;;1.85;0.43;;;27.00;43.60;;;;;;4959759;28;20774;-75
2022/06/07 10:38:40;;;;;;;3.88;0.30;;;27.00;43.40;;;;;;4967239;28;20046;-76
2022/06/07 10:41:20;;;;;;;0.15;0.15;;;27.20;43.10;;;;;;4960956;28;20088;-75
2022/06/07 10:44:07;;;;;;;2.15;0.40;;;27.30;43.10;;;;;;4974850;28;20051;-75
2022/06/07 10:46:35;;;;;;;3.97;0.47;;;27.30;43.00;;;;;;4978148;28;20751;-76
2022/06/07 10:49:29;;;;;;;2.67;0.40;;;27.40;43.00;;;;;;4922066;28;20607;-75
2022/06/07 10:52:20;;;;;;;1.65;0.30;;;27.40;42.40;;;;;;4965152;28;20098;-75
2022/06/07 10:55:00;;;;;;;0.30;0.30;;;27.60;42.90;;;;;;4960721;28;20181;-75
2022/06/07 10:57:40;;;;;;;0.93;0.40;;;27.80;42.40;;;;;;4959776;28;20059;-75
2022/06/07 11:00:42;;;;;;;1.20;0.57;;;28.10;41.90;;;;;;4976741;28;20412;-75
2022/06/07 11:03:16;;;;;;;2.13;0.57;;;28.30;41.10;;;;;;4968682;28;20298;-75
2022/06/07 11:11:21;;;;;;;3.03;0.73;;;28.10;41.10;;;;;;4942782;28;20435;-76
2022/06/07 11:14:18;;;;;;;1.75;0.32;;;28.00;41.80;;;;;;4942936;28;20034;-75
2022/06/07 11:16:56;;;;;;;0.38;0.38;;;28.00;41.20;;;;;;4956099;28;20034;-75
2022/06/07 11:19:21;;;;;;;1.48;0.30;;;27.90;41.30;;;;;;4961039;28;20062;-75
2022/06/07 11:21:47;;;;;;;1.50;0.40;;;27.80;41.90;;;;;;4960325;28;20102;-75
2022/06/07 11:24:17;;;;;;;1.10;0.50;;;27.80;41.70;;;;;;4939672;28;20093;-75
2022/06/07 11:26:52;;;;;;;5.72;0.82;;;27.80;41.40;;;;;;4958440;28;20035;-76
2022/06/07 11:29:30;;;;;;;1.40;0.38;;;27.90;40.60;;;;;;4956747;28;20037;-76
2022/06/07 11:31:56;;;;;;;4.75;1.50;;;27.80;41.00;;;;;;4956967;28;20038;-75
2022/06/07 11:34:26;;;;;;;5.35;0.40;;;27.80;41.10;;;;;;4958909;28;20066;-75
2022/06/07 11:36:57;;;;;;;3.67;0.50;;;27.80;40.60;;;;;;4973613;28;20070;-75
2022/06/07 11:39:25;;;;;;;1.63;0.30;;;27.80;40.60;;;;;;4965539;28;20046;-74
2022/06/07 11:41:52;;;;;;;2.25;0.52;;;27.80;40.60;;;;;;4965635;28;20043;-74
2022/06/07 11:45:03;;;;;;;2.00;0.30;;;27.80;40.80;;;;;;4968827;28;20490;-75
2022/06/07 11:47:54;;;;;;;2.58;0.40;;;27.90;40.50;;;;;;4930401;28;21723;-74
2022/06/07 11:50:40;;;;;;;5.72;0.40;;;28.00;40.70;;;;;;4988127;28;20058;-74
2022/06/07 11:53:21;;;;;;;0.63;0.30;;;28.00;40.70;;;;;;4943070;28;20541;-75
2022/06/07 11:55:46;;;;;;;1.20;0.52;;;28.00;40.60;;;;;;4957522;28;20113;-74
2022/06/07 11:58:12;;;;;;;2.67;0.40;;;28.00;40.70;;;;;;4973246;28;20496;-74
2022/06/07 12:00:45;;;;;;;1.77;0.50;;;27.90;40.70;;;;;;4929204;28;20070;-74
2022/06/07 12:03:23;;;;;;;6.28;0.80;;;27.90;40.60;;;;;;4956977;28;20035;-74
2022/06/07 12:06:14;;;;;;;9.55;0.90;;;28.00;40.80;;;;;;4971985;28;20098;-75
2022/06/07 12:08:51;;;;;;;5.03;0.68;;;28.10;40.20;;;;;;4950790;28;20085;-75
2022/06/07 12:11:21;;;;;;;3.53;0.40;;;28.10;40.50;;;;;;4950983;28;20046;-74
2022/06/07 12:14:29;;;;;;;0.40;0.30;;;28.10;40.60;;;;;;4941230;28;20455;-74
2022/06/07 12:16:57;;;;;;;1.23;0.30;;;28.20;40.20;;;;;;4953315;28;20498;-75
2022/06/07 12:19:24;;;;;;;1.17;0.20;;;28.30;40.50;;;;;;4965074;28;20122;-74
2022/06/07 12:21:56;;;;;;;0.65;0.30;;;28.40;40.30;;;;;;4971881;28;20039;-75
2022/06/07 12:24:23;;;;;;;1.35;0.50;;;28.60;40.20;;;;;;4966996;28;20112;-74
2022/06/07 12:26:48;;;;;;;1.33;0.50;;;28.80;40.10;;;;;;4972280;28;20070;-74
2022/06/07 12:29:18;;;;;;;3.50;0.57;;;28.90;39.80;;;;;;4941065;28;20063;-74
2022/06/07 12:31:50;;;;;;;0.65;0.32;;;29.20;39.80;;;;;;4959093;28;20097;-75
2022/06/07 12:34:44;;;;;;;1.48;0.60;;;29.30;39.30;;;;;;4926857;28;20058;-74
2022/06/07 12:37:10;;;;;;;13.27;3.60;;;29.40;38.40;;;;;;4954255;28;20041;-74
2022/06/07 12:39:53;;;;;;;1.98;0.80;;;29.40;39.10;;;;;;4956687;28;20118;-74
2022/06/07 12:42:19;;;;;;;1.92;0.85;;;29.40;38.40;;;;;;4965040;28;20563;-75
2022/06/07 12:44:56;;;;;;;1.58;0.50;;;29.40;38.70;;;;;;4973566;28;20042;-74
2022/06/07 12:47:23;;;;;;;11.57;2.58;;;29.40;38.10;;;;;;4941550;28;20121;-74
2022/06/07 12:49:49;;;;;;;2.35;0.60;;;29.30;38.50;;;;;;4953459;28;20041;-74
2022/06/07 12:52:18;;;;;;;11.38;4.40;;;29.20;38.50;;;;;;4940449;28;20049;-74
2022/06/07 12:54:49;;;;;;;4.15;1.45;;;29.30;38.60;;;;;;4960038;28;20703;-74
2022/06/07 12:57:20;;;;;;;6.22;0.70;;;29.40;38.40;;;;;;4970961;28;20607;-74
2022/06/07 12:59:51;;;;;;;;;;;29.60;38.60;;;;;;4945934;28;20039;-74
2022/06/07 13:02:18;;;;;;;;;;;29.80;38.60;;;;;;4974088;28;19921;-75
2022/06/07 13:04:46;;;;;;;1.40;0.57;;;30.00;38.80;;;;;;4961697;28;20001;-74
2022/06/07 13:07:31;;;;;;;1.90;0.40;;;30.10;38.50;;;;;;4938685;28;20034;-75
2022/06/07 13:09:59;;;;;;;0.50;0.32;;;30.10;37.40;;;;;;4973626;28;20035;-75
2022/06/07 13:12:28;;;;;;;0.73;0.40;;;30.10;38.00;;;;;;4940271;28;20738;-75
2022/06/07 13:14:54;;;;;;;0.68;0.38;;;30.10;37.80;;;;;;4966201;28;20050;-76
2022/06/07 13:17:28;;;;;;;1.75;0.52;;;30.20;38.00;;;;;;4921725;28;20053;-75
2022/06/07 13:19:54;;;;;;;2.42;0.50;;;30.30;37.50;;;;;;4951110;28;20042;-75
2022/06/07 13:22:19;;;;;;;0.70;0.35;;;30.40;37.80;;;;;;4975308;28;20280;-76
2022/06/07 13:24:48;;;;;;;2.08;0.93;;;30.50;37.70;;;;;;4950345;28;20052;-74